sensor_id;sensor_type;location;lat;lon;timestamp;temperature;humidity
37300;DHT22;23184;51.902;12.836;2022-10-26T00:01:43;9.10;99.90
37300;DHT22;23184;51.902;12.836;2022-10-26T00:04:09;9.10;99.90
37300;DHT22;23184;51.902;12.836;2022-10-26T00:06:34;9.00;99.90
37300;DHT22;23184;51.902;12.836;2022-10-26T00:09:00;9.00;99.90
37300;DHT22;23184;51.902;12.836;2022-10-26T00:11:25;8.90;99.90
37300;DHT22;23184;51.902;12.836;2022-10-26T00:13:51;8.90;99.90
37300;DHT22;23184;51.902;12.836;2022-10-26T00:16:18;8.80;99.90
37300;DHT22;23184;51.902;12.836;2022-10-26T00:18:44;8.80;99.90
37300;DHT22;23184;51.902;12.836;2022-10-26T00:21:10;8.70;99.90
37300;DHT22;23184;51.902;12.836;2022-10-26T00:23:36;8.60;99.90
37300;DHT22;23184;51.902;12.836;2022-10-26T00:26:03;8.60;99.90
37300;DHT22;23184;51.902;12.836;2022-10-26T00:28:29;8.60;99.90
37300;DHT22;23184;51.902;12.836;2022-10-26T00:30:58;8.70;99.90
37300;DHT22;23184;51.902;12.836;2022-10-26T00:33:24;8.80;99.90
37300;DHT22;23184;51.902;12.836;2022-10-26T00:35:53;8.80;99.90
37300;DHT22;23184;51.902;12.836;2022-10-26T00:38:19;8.80;99.90
37300;DHT22;23184;51.902;12.836;2022-10-26T00:40:45;8.80;99.90
37300;DHT22;23184;51.902;12.836;2022-10-26T00:45:53;8.60;99.90
37300;DHT22;23184;51.902;12.836;2022-10-26T00:48:34;8.60;99.90
37300;DHT22;23184;51.902;12.836;2022-10-26T00:51:08;8.60;99.90
37300;DHT22;23184;51.902;12.836;2022-10-26T00:53:34;8.50;99.90
37300;DHT22;23184;51.902;12.836;2022-10-26T00:56:01;8.40;99.90
37300;DHT22;23184;51.902;12.836;2022-10-26T00:58:27;8.30;99.90
37300;DHT22;23184;51.902;12.836;2022-10-26T01:00:53;8.20;99.90
37300;DHT22;23184;51.902;12.836;2022-10-26T01:03:19;8.20;99.90
37300;DHT22;23184;51.902;12.836;2022-10-26T01:05:47;8.20;99.90
37300;DHT22;23184;51.902;12.836;2022-10-26T01:08:15;8.20;99.90
37300;DHT22;23184;51.902;12.836;2022-10-26T01:10:41;8.10;99.90
37300;DHT22;23184;51.902;12.836;2022-10-26T01:13:08;8.10;99.90
37300;DHT22;23184;51.902;12.836;2022-10-26T01:23:56;7.90;99.90
37300;DHT22;23184;51.902;12.836;2022-10-26T01:27:01;7.90;99.90
37300;DHT22;23184;51.902;12.836;2022-10-26T01:29:45;7.90;99.90
37300;DHT22;23184;51.902;12.836;2022-10-26T01:35:20;7.90;99.90
37300;DHT22;23184;51.902;12.836;2022-10-26T01:38:04;7.90;99.90
37300;DHT22;23184;51.902;12.836;2022-10-26T01:40:41;7.90;99.90
37300;DHT22;23184;51.902;12.836;2022-10-26T01:43:12;7.80;99.90
37300;DHT22;23184;51.902;12.836;2022-10-26T01:45:42;7.90;99.90
37300;DHT22;23184;51.902;12.836;2022-10-26T01:48:12;7.80;99.90
37300;DHT22;23184;51.902;12.836;2022-10-26T01:50:40;7.80;99.90
37300;DHT22;23184;51.902;12.836;2022-10-26T01:53:11;7.70;99.90
37300;DHT22;23184;51.902;12.836;2022-10-26T01:55:47;7.70;99.90
37300;DHT22;23184;51.902;12.836;2022-10-26T02:04:23;7.60;99.90
37300;DHT22;23184;51.902;12.836;2022-10-26T02:06:56;7.60;99.90
37300;DHT22;23184;51.902;12.836;2022-10-26T02:12:34;7.00;99.90
37300;DHT22;23184;51.902;12.836;2022-10-26T02:15:20;6.60;99.90
37300;DHT22;23184;51.902;12.836;2022-10-26T02:20:46;6.80;99.90
37300;DHT22;23184;51.902;12.836;2022-10-26T02:23:14;6.80;99.90
37300;DHT22;23184;51.902;12.836;2022-10-26T02:25:46;6.90;99.90
37300;DHT22;23184;51.902;12.836;2022-10-26T02:28:18;6.90;99.90
37300;DHT22;23184;51.902;12.836;2022-10-26T02:30:45;7.00;99.90
37300;DHT22;23184;51.902;12.836;2022-10-26T02:33:14;7.00;99.90
37300;DHT22;23184;51.902;12.836;2022-10-26T02:35:42;7.00;99.90
37300;DHT22;23184;51.902;12.836;2022-10-26T02:38:12;7.00;99.90
37300;DHT22;23184;51.902;12.836;2022-10-26T02:40:39;7.00;99.90
37300;DHT22;23184;51.902;12.836;2022-10-26T02:43:09;7.00;99.90
37300;DHT22;23184;51.902;12.836;2022-10-26T02:45:41;7.10;99.90
37300;DHT22;23184;51.902;12.836;2022-10-26T02:48:07;7.10;99.90
37300;DHT22;23184;51.902;12.836;2022-10-26T02:50:43;7.20;99.90
37300;DHT22;23184;51.902;12.836;2022-10-26T02:55:54;7.40;99.90
37300;DHT22;23184;51.902;12.836;2022-10-26T02:58:28;7.50;99.90
37300;DHT22;23184;51.902;12.836;2022-10-26T03:00:55;7.50;99.90
37300;DHT22;23184;51.902;12.836;2022-10-26T03:03:21;7.50;99.90
37300;DHT22;23184;51.902;12.836;2022-10-26T03:05:47;7.60;99.90
37300;DHT22;23184;51.902;12.836;2022-10-26T03:08:13;7.60;99.90
37300;DHT22;23184;51.902;12.836;2022-10-26T03:10:41;7.70;99.90
37300;DHT22;23184;51.902;12.836;2022-10-26T03:13:08;7.70;99.90
37300;DHT22;23184;51.902;12.836;2022-10-26T03:15:33;7.80;99.90
37300;DHT22;23184;51.902;12.836;2022-10-26T03:17:59;7.80;99.90
37300;DHT22;23184;51.902;12.836;2022-10-26T03:20:24;7.70;99.90
37300;DHT22;23184;51.902;12.836;2022-10-26T03:22:50;7.70;99.90
37300;DHT22;23184;51.902;12.836;2022-10-26T03:25:16;7.60;99.90
37300;DHT22;23184;51.902;12.836;2022-10-26T03:27:42;7.60;99.90
37300;DHT22;23184;51.902;12.836;2022-10-26T03:30:08;7.60;99.90
37300;DHT22;23184;51.902;12.836;2022-10-26T03:32:34;7.60;99.90
37300;DHT22;23184;51.902;12.836;2022-10-26T03:34:59;7.60;99.90
37300;DHT22;23184;51.902;12.836;2022-10-26T03:37:25;7.60;99.90
37300;DHT22;23184;51.902;12.836;2022-10-26T03:39:51;7.50;99.90
37300;DHT22;23184;51.902;12.836;2022-10-26T03:42:16;7.50;99.90
37300;DHT22;23184;51.902;12.836;2022-10-26T03:44:42;7.50;99.90
37300;DHT22;23184;51.902;12.836;2022-10-26T03:47:08;7.50;99.90
37300;DHT22;23184;51.902;12.836;2022-10-26T03:49:33;7.50;99.90
37300;DHT22;23184;51.902;12.836;2022-10-26T03:52:00;7.50;99.90
37300;DHT22;23184;51.902;12.836;2022-10-26T03:54:25;7.60;99.90
37300;DHT22;23184;51.902;12.836;2022-10-26T03:56:51;7.60;99.90
37300;DHT22;23184;51.902;12.836;2022-10-26T03:59:17;7.60;99.90
37300;DHT22;23184;51.902;12.836;2022-10-26T04:01:43;7.60;99.90
37300;DHT22;23184;51.902;12.836;2022-10-26T04:04:08;7.50;99.90
37300;DHT22;23184;51.902;12.836;2022-10-26T04:06:34;7.50;99.90
37300;DHT22;23184;51.902;12.836;2022-10-26T04:08:59;7.40;99.90
37300;DHT22;23184;51.902;12.836;2022-10-26T04:11:27;7.40;99.90
37300;DHT22;23184;51.902;12.836;2022-10-26T04:13:53;7.40;99.90
37300;DHT22;23184;51.902;12.836;2022-10-26T04:16:20;7.30;99.90
37300;DHT22;23184;51.902;12.836;2022-10-26T04:18:45;7.20;99.90
37300;DHT22;23184;51.902;12.836;2022-10-26T04:21:11;7.20;99.90
37300;DHT22;23184;51.902;12.836;2022-10-26T04:23:36;7.10;99.90
37300;DHT22;23184;51.902;12.836;2022-10-26T04:26:04;7.10;99.90
37300;DHT22;23184;51.902;12.836;2022-10-26T04:28:29;7.10;99.90
37300;DHT22;23184;51.902;12.836;2022-10-26T04:30:55;7.20;99.90
37300;DHT22;23184;51.902;12.836;2022-10-26T04:33:21;7.20;99.90
37300;DHT22;23184;51.902;12.836;2022-10-26T04:35:46;7.20;99.90
37300;DHT22;23184;51.902;12.836;2022-10-26T04:38:12;7.10;99.90
37300;DHT22;23184;51.902;12.836;2022-10-26T04:40:38;7.10;99.90
37300;DHT22;23184;51.902;12.836;2022-10-26T04:43:03;7.00;99.90
37300;DHT22;23184;51.902;12.836;2022-10-26T04:45:29;6.90;99.90
37300;DHT22;23184;51.902;12.836;2022-10-26T04:48:00;6.90;99.90
37300;DHT22;23184;51.902;12.836;2022-10-26T04:50:26;6.80;99.90
37300;DHT22;23184;51.902;12.836;2022-10-26T04:52:52;6.70;99.90
37300;DHT22;23184;51.902;12.836;2022-10-26T04:55:17;6.60;99.90
37300;DHT22;23184;51.902;12.836;2022-10-26T04:57:43;6.50;99.90
37300;DHT22;23184;51.902;12.836;2022-10-26T05:00:10;6.50;99.90
37300;DHT22;23184;51.902;12.836;2022-10-26T05:02:36;6.50;99.90
37300;DHT22;23184;51.902;12.836;2022-10-26T05:05:01;6.50;99.90
37300;DHT22;23184;51.902;12.836;2022-10-26T05:07:27;6.50;99.90
37300;DHT22;23184;51.902;12.836;2022-10-26T05:09:52;6.50;99.90
37300;DHT22;23184;51.902;12.836;2022-10-26T05:12:18;6.40;99.90
37300;DHT22;23184;51.902;12.836;2022-10-26T05:14:43;6.40;99.90
37300;DHT22;23184;51.902;12.836;2022-10-26T05:17:09;6.50;99.90
37300;DHT22;23184;51.902;12.836;2022-10-26T05:19:34;6.50;99.90
37300;DHT22;23184;51.902;12.836;2022-10-26T05:22:00;6.50;99.90
37300;DHT22;23184;51.902;12.836;2022-10-26T05:24:25;6.50;99.90
37300;DHT22;23184;51.902;12.836;2022-10-26T05:26:51;6.50;99.90
37300;DHT22;23184;51.902;12.836;2022-10-26T05:29:16;6.50;99.90
37300;DHT22;23184;51.902;12.836;2022-10-26T05:31:42;6.50;99.90
37300;DHT22;23184;51.902;12.836;2022-10-26T05:34:07;6.60;99.90
37300;DHT22;23184;51.902;12.836;2022-10-26T05:36:33;6.60;99.90
37300;DHT22;23184;51.902;12.836;2022-10-26T05:38:59;6.60;99.90
37300;DHT22;23184;51.902;12.836;2022-10-26T05:41:24;6.60;99.90
37300;DHT22;23184;51.902;12.836;2022-10-26T05:43:50;6.60;99.90
37300;DHT22;23184;51.902;12.836;2022-10-26T05:46:15;6.50;99.90
37300;DHT22;23184;51.902;12.836;2022-10-26T05:48:41;6.40;99.90
37300;DHT22;23184;51.902;12.836;2022-10-26T05:51:07;6.30;99.90
37300;DHT22;23184;51.902;12.836;2022-10-26T05:53:32;6.30;99.90
37300;DHT22;23184;51.902;12.836;2022-10-26T05:55:58;6.20;99.90
37300;DHT22;23184;51.902;12.836;2022-10-26T05:58:24;6.40;99.90
37300;DHT22;23184;51.902;12.836;2022-10-26T06:03:37;6.40;99.90
37300;DHT22;23184;51.902;12.836;2022-10-26T06:06:06;6.40;99.90
37300;DHT22;23184;51.902;12.836;2022-10-26T06:08:32;6.30;99.90
37300;DHT22;23184;51.902;12.836;2022-10-26T06:10:58;6.30;99.90
37300;DHT22;23184;51.902;12.836;2022-10-26T06:13:24;6.40;99.90
37300;DHT22;23184;51.902;12.836;2022-10-26T06:16:09;6.30;99.90
37300;DHT22;23184;51.902;12.836;2022-10-26T06:24:19;6.50;99.90
37300;DHT22;23184;51.902;12.836;2022-10-26T06:31:57;7.10;99.90
37300;DHT22;23184;51.902;12.836;2022-10-26T06:34:32;7.30;99.90
37300;DHT22;23184;51.902;12.836;2022-10-26T06:36:59;7.50;99.90
37300;DHT22;23184;51.902;12.836;2022-10-26T06:39:27;7.60;99.90
37300;DHT22;23184;51.902;12.836;2022-10-26T06:41:56;7.60;99.90
37300;DHT22;23184;51.902;12.836;2022-10-26T06:44:22;7.70;99.90
37300;DHT22;23184;51.902;12.836;2022-10-26T06:49:35;7.80;99.90
37300;DHT22;23184;51.902;12.836;2022-10-26T06:52:15;7.70;99.90
37300;DHT22;23184;51.902;12.836;2022-10-26T06:54:53;7.70;99.90
37300;DHT22;23184;51.902;12.836;2022-10-26T06:57:23;7.90;99.90
37300;DHT22;23184;51.902;12.836;2022-10-26T06:59:50;8.00;99.90
37300;DHT22;23184;51.902;12.836;2022-10-26T07:02:16;8.20;99.90
37300;DHT22;23184;51.902;12.836;2022-10-26T07:04:42;8.30;99.90
37300;DHT22;23184;51.902;12.836;2022-10-26T07:07:11;8.40;99.90
37300;DHT22;23184;51.902;12.836;2022-10-26T07:09:38;8.50;99.90
37300;DHT22;23184;51.902;12.836;2022-10-26T07:12:03;8.60;99.90
37300;DHT22;23184;51.902;12.836;2022-10-26T07:14:29;8.70;99.90
37300;DHT22;23184;51.902;12.836;2022-10-26T07:16:54;8.90;99.90
37300;DHT22;23184;51.902;12.836;2022-10-26T07:19:21;9.00;99.90
37300;DHT22;23184;51.902;12.836;2022-10-26T07:21:47;9.10;99.90
37300;DHT22;23184;51.902;12.836;2022-10-26T07:24:12;9.10;99.90
37300;DHT22;23184;51.902;12.836;2022-10-26T07:26:38;9.20;99.90
37300;DHT22;23184;51.902;12.836;2022-10-26T07:29:03;9.30;99.90
37300;DHT22;23184;51.902;12.836;2022-10-26T07:31:29;9.40;99.90
37300;DHT22;23184;51.902;12.836;2022-10-26T07:33:54;9.50;99.90
37300;DHT22;23184;51.902;12.836;2022-10-26T07:36:20;9.50;99.90
37300;DHT22;23184;51.902;12.836;2022-10-26T07:38:46;9.60;99.90
37300;DHT22;23184;51.902;12.836;2022-10-26T07:41:11;9.60;99.90
37300;DHT22;23184;51.902;12.836;2022-10-26T07:43:38;9.70;99.90
37300;DHT22;23184;51.902;12.836;2022-10-26T07:46:04;9.70;99.90
37300;DHT22;23184;51.902;12.836;2022-10-26T07:48:29;9.80;99.90
37300;DHT22;23184;51.902;12.836;2022-10-26T07:50:55;9.80;99.90
37300;DHT22;23184;51.902;12.836;2022-10-26T07:53:20;9.90;99.90
37300;DHT22;23184;51.902;12.836;2022-10-26T07:55:56;9.90;99.90
37300;DHT22;23184;51.902;12.836;2022-10-26T07:58:22;10.00;99.90
37300;DHT22;23184;51.902;12.836;2022-10-26T08:00:51;10.10;99.90
37300;DHT22;23184;51.902;12.836;2022-10-26T08:03:17;10.20;99.90
37300;DHT22;23184;51.902;12.836;2022-10-26T08:05:48;10.30;99.90
37300;DHT22;23184;51.902;12.836;2022-10-26T08:08:18;10.50;99.90
37300;DHT22;23184;51.902;12.836;2022-10-26T08:10:45;10.70;99.90
37300;DHT22;23184;51.902;12.836;2022-10-26T08:13:11;10.80;99.90
37300;DHT22;23184;51.902;12.836;2022-10-26T08:15:37;11.00;99.90
37300;DHT22;23184;51.902;12.836;2022-10-26T08:18:03;11.30;99.90
37300;DHT22;23184;51.902;12.836;2022-10-26T08:20:29;11.60;99.90
37300;DHT22;23184;51.902;12.836;2022-10-26T08:22:58;11.80;99.90
37300;DHT22;23184;51.902;12.836;2022-10-26T08:25:24;12.20;99.90
37300;DHT22;23184;51.902;12.836;2022-10-26T08:27:50;13.10;99.90
37300;DHT22;23184;51.902;12.836;2022-10-26T08:30:16;14.50;99.90
37300;DHT22;23184;51.902;12.836;2022-10-26T08:32:42;15.60;99.90
37300;DHT22;23184;51.902;12.836;2022-10-26T08:35:08;16.50;99.90
37300;DHT22;23184;51.902;12.836;2022-10-26T08:37:34;17.40;99.90
37300;DHT22;23184;51.902;12.836;2022-10-26T08:39:59;18.50;99.90
37300;DHT22;23184;51.902;12.836;2022-10-26T08:45:02;20.80;99.90
37300;DHT22;23184;51.902;12.836;2022-10-26T08:47:34;21.40;99.90
37300;DHT22;23184;51.902;12.836;2022-10-26T08:50:10;22.00;99.90
37300;DHT22;23184;51.902;12.836;2022-10-26T08:55:14;22.60;99.90
37300;DHT22;23184;51.902;12.836;2022-10-26T08:57:41;23.00;99.90
37300;DHT22;23184;51.902;12.836;2022-10-26T09:02:38;21.60;99.90
37300;DHT22;23184;51.902;12.836;2022-10-26T09:05:16;21.20;99.90
37300;DHT22;23184;51.902;12.836;2022-10-26T09:11:42;21.70;99.90
37300;DHT22;23184;51.902;12.836;2022-10-26T09:20:01;20.00;99.90
37300;DHT22;23184;51.902;12.836;2022-10-26T09:25:19;19.60;99.90
37300;DHT22;23184;51.902;12.836;2022-10-26T09:27:53;17.50;99.90
37300;DHT22;23184;51.902;12.836;2022-10-26T09:30:20;18.20;99.90
37300;DHT22;23184;51.902;12.836;2022-10-26T09:32:56;17.00;99.90
37300;DHT22;23184;51.902;12.836;2022-10-26T09:35:46;17.20;99.90
37300;DHT22;23184;51.902;12.836;2022-10-26T09:45:52;17.80;99.90
37300;DHT22;23184;51.902;12.836;2022-10-26T09:48:28;18.50;99.90
37300;DHT22;23184;51.902;12.836;2022-10-26T09:50:55;19.10;99.90
37300;DHT22;23184;51.902;12.836;2022-10-26T09:53:22;19.40;99.90
37300;DHT22;23184;51.902;12.836;2022-10-26T09:55:49;19.50;99.90
37300;DHT22;23184;51.902;12.836;2022-10-26T09:58:25;19.30;99.90
37300;DHT22;23184;51.902;12.836;2022-10-26T10:00:52;19.40;99.90
37300;DHT22;23184;51.902;12.836;2022-10-26T10:03:23;19.00;99.90
37300;DHT22;23184;51.902;12.836;2022-10-26T10:05:49;18.20;99.90
37300;DHT22;23184;51.902;12.836;2022-10-26T10:08:22;17.70;99.90
37300;DHT22;23184;51.902;12.836;2022-10-26T10:13:31;16.70;99.90
37300;DHT22;23184;51.902;12.836;2022-10-26T10:16:05;16.60;99.90
37300;DHT22;23184;51.902;12.836;2022-10-26T10:18:31;16.50;99.90
37300;DHT22;23184;51.902;12.836;2022-10-26T10:20:57;16.40;99.90
37300;DHT22;23184;51.902;12.836;2022-10-26T10:23:29;16.30;99.90
37300;DHT22;23184;51.902;12.836;2022-10-26T10:26:08;16.20;99.90
37300;DHT22;23184;51.902;12.836;2022-10-26T10:28:35;16.10;99.90
37300;DHT22;23184;51.902;12.836;2022-10-26T10:31:17;16.10;99.90
37300;DHT22;23184;51.902;12.836;2022-10-26T10:33:43;16.10;99.90
37300;DHT22;23184;51.902;12.836;2022-10-26T10:36:17;16.10;99.90
37300;DHT22;23184;51.902;12.836;2022-10-26T10:38:45;16.00;99.90
37300;DHT22;23184;51.902;12.836;2022-10-26T10:41:25;15.90;99.90
37300;DHT22;23184;51.902;12.836;2022-10-26T10:43:55;16.00;99.90
37300;DHT22;23184;51.902;12.836;2022-10-26T10:46:24;16.00;99.90
37300;DHT22;23184;51.902;12.836;2022-10-26T10:48:59;16.00;99.90
37300;DHT22;23184;51.902;12.836;2022-10-26T10:51:25;16.10;99.90
37300;DHT22;23184;51.902;12.836;2022-10-26T10:53:55;16.10;99.90
37300;DHT22;23184;51.902;12.836;2022-10-26T11:01:38;16.20;99.90
37300;DHT22;23184;51.902;12.836;2022-10-26T11:07:00;16.30;99.90
37300;DHT22;23184;51.902;12.836;2022-10-26T11:09:30;16.30;99.90
37300;DHT22;23184;51.902;12.836;2022-10-26T11:12:02;16.30;99.90
37300;DHT22;23184;51.902;12.836;2022-10-26T11:14:41;16.30;99.90
37300;DHT22;23184;51.902;12.836;2022-10-26T11:17:15;16.40;99.90
37300;DHT22;23184;51.902;12.836;2022-10-26T11:20:10;16.40;99.90
37300;DHT22;23184;51.902;12.836;2022-10-26T11:25:33;16.50;99.90
37300;DHT22;23184;51.902;12.836;2022-10-26T11:28:19;16.60;99.90
37300;DHT22;23184;51.902;12.836;2022-10-26T11:30:53;16.60;99.90
37300;DHT22;23184;51.902;12.836;2022-10-26T11:33:31;16.70;99.90
37300;DHT22;23184;51.902;12.836;2022-10-26T11:35:59;16.70;99.90
37300;DHT22;23184;51.902;12.836;2022-10-26T11:38:47;16.80;99.90
37300;DHT22;23184;51.902;12.836;2022-10-26T11:41:21;16.80;99.90
37300;DHT22;23184;51.902;12.836;2022-10-26T11:44:21;16.80;99.90
37300;DHT22;23184;51.902;12.836;2022-10-26T11:46:53;16.80;99.90
37300;DHT22;23184;51.902;12.836;2022-10-26T11:54:48;16.90;99.90
37300;DHT22;23184;51.902;12.836;2022-10-26T11:57:17;16.70;99.90
37300;DHT22;23184;51.902;12.836;2022-10-26T11:59:53;16.80;99.90
37300;DHT22;23184;51.902;12.836;2022-10-26T12:02:23;16.80;99.90
37300;DHT22;23184;51.902;12.836;2022-10-26T12:05:07;16.90;99.90
37300;DHT22;23184;51.902;12.836;2022-10-26T12:07:38;16.80;99.90
37300;DHT22;23184;51.902;12.836;2022-10-26T12:10:07;16.90;99.90
37300;DHT22;23184;51.902;12.836;2022-10-26T12:12:42;17.00;99.90
37300;DHT22;23184;51.902;12.836;2022-10-26T12:15:59;17.00;99.90
37300;DHT22;23184;51.902;12.836;2022-10-26T12:18:20;17.10;99.90
37300;DHT22;23184;51.902;12.836;2022-10-26T12:20:59;17.10;99.90
37300;DHT22;23184;51.902;12.836;2022-10-26T12:23:31;17.10;99.90
37300;DHT22;23184;51.902;12.836;2022-10-26T12:29:34;17.10;99.90
37300;DHT22;23184;51.902;12.836;2022-10-26T12:34:11;17.20;99.90
37300;DHT22;23184;51.902;12.836;2022-10-26T12:39:37;17.50;99.90
37300;DHT22;23184;51.902;12.836;2022-10-26T12:42:10;17.50;99.90
37300;DHT22;23184;51.902;12.836;2022-10-26T12:50:21;17.50;99.90
37300;DHT22;23184;51.902;12.836;2022-10-26T12:52:53;17.40;99.90
37300;DHT22;23184;51.902;12.836;2022-10-26T12:58:27;17.50;99.90
37300;DHT22;23184;51.902;12.836;2022-10-26T13:03:33;17.70;99.90
37300;DHT22;23184;51.902;12.836;2022-10-26T13:08:55;17.70;99.90
37300;DHT22;23184;51.902;12.836;2022-10-26T13:11:35;17.80;99.90
37300;DHT22;23184;51.902;12.836;2022-10-26T13:14:06;17.90;99.90
37300;DHT22;23184;51.902;12.836;2022-10-26T13:16:33;18.00;99.90
37300;DHT22;23184;51.902;12.836;2022-10-26T13:18:59;18.10;99.90
37300;DHT22;23184;51.902;12.836;2022-10-26T13:21:26;18.30;99.90
37300;DHT22;23184;51.902;12.836;2022-10-26T13:26:19;18.60;99.90
37300;DHT22;23184;51.902;12.836;2022-10-26T13:29:01;18.90;99.90
37300;DHT22;23184;51.902;12.836;2022-10-26T13:34:00;18.90;99.90
37300;DHT22;23184;51.902;12.836;2022-10-26T13:36:43;18.80;99.90
37300;DHT22;23184;51.902;12.836;2022-10-26T13:39:29;18.20;99.90
37300;DHT22;23184;51.902;12.836;2022-10-26T13:41:57;17.90;99.90
37300;DHT22;23184;51.902;12.836;2022-10-26T13:47:16;17.60;99.90
37300;DHT22;23184;51.902;12.836;2022-10-26T13:49:46;17.50;99.90
37300;DHT22;23184;51.902;12.836;2022-10-26T13:52:16;17.10;99.90
37300;DHT22;23184;51.902;12.836;2022-10-26T13:54:49;16.90;99.90
37300;DHT22;23184;51.902;12.836;2022-10-26T13:57:42;16.90;99.90
37300;DHT22;23184;51.902;12.836;2022-10-26T14:00:15;16.90;99.90
37300;DHT22;23184;51.902;12.836;2022-10-26T14:02:41;16.90;99.90
37300;DHT22;23184;51.902;12.836;2022-10-26T14:05:13;17.10;99.90
37300;DHT22;23184;51.902;12.836;2022-10-26T14:07:52;17.90;99.90
37300;DHT22;23184;51.902;12.836;2022-10-26T14:10:32;18.20;99.90
37300;DHT22;23184;51.902;12.836;2022-10-26T14:12:59;18.60;99.90
37300;DHT22;23184;51.902;12.836;2022-10-26T14:15:30;19.00;99.90
37300;DHT22;23184;51.902;12.836;2022-10-26T14:17:58;20.10;99.90
37300;DHT22;23184;51.902;12.836;2022-10-26T14:20:25;19.90;99.90
37300;DHT22;23184;51.902;12.836;2022-10-26T14:22:52;20.30;99.90
37300;DHT22;23184;51.902;12.836;2022-10-26T14:25:25;20.30;99.90
37300;DHT22;23184;51.902;12.836;2022-10-26T14:27:52;21.00;99.90
37300;DHT22;23184;51.902;12.836;2022-10-26T14:30:23;21.30;99.90
37300;DHT22;23184;51.902;12.836;2022-10-26T14:32:50;21.50;99.90
37300;DHT22;23184;51.902;12.836;2022-10-26T14:35:17;21.90;99.90
37300;DHT22;23184;51.902;12.836;2022-10-26T14:37:44;21.30;99.90
37300;DHT22;23184;51.902;12.836;2022-10-26T14:40:19;21.10;99.90
37300;DHT22;23184;51.902;12.836;2022-10-26T14:42:52;19.70;99.90
37300;DHT22;23184;51.902;12.836;2022-10-26T14:45:31;19.00;99.90
37300;DHT22;23184;51.902;12.836;2022-10-26T14:48:00;18.10;99.90
37300;DHT22;23184;51.902;12.836;2022-10-26T14:50:26;17.90;99.90
37300;DHT22;23184;51.902;12.836;2022-10-26T14:53:10;17.70;99.90
37300;DHT22;23184;51.902;12.836;2022-10-26T14:55:48;17.70;99.90
37300;DHT22;23184;51.902;12.836;2022-10-26T14:58:35;17.70;99.90
37300;DHT22;23184;51.902;12.836;2022-10-26T15:01:14;17.60;99.90
37300;DHT22;23184;51.902;12.836;2022-10-26T15:03:41;17.50;99.90
37300;DHT22;23184;51.902;12.836;2022-10-26T15:09:02;17.20;99.90
37300;DHT22;23184;51.902;12.836;2022-10-26T15:11:30;17.10;99.90
37300;DHT22;23184;51.902;12.836;2022-10-26T15:13:57;17.00;99.90
37300;DHT22;23184;51.902;12.836;2022-10-26T15:16:33;16.80;99.90
37300;DHT22;23184;51.902;12.836;2022-10-26T15:19:14;16.70;99.90
37300;DHT22;23184;51.902;12.836;2022-10-26T15:21:47;16.60;99.90
37300;DHT22;23184;51.902;12.836;2022-10-26T15:24:25;16.50;99.90
37300;DHT22;23184;51.902;12.836;2022-10-26T15:26:52;16.40;99.90
37300;DHT22;23184;51.902;12.836;2022-10-26T15:32:03;16.20;99.90
37300;DHT22;23184;51.902;12.836;2022-10-26T15:34:29;16.10;99.90
37300;DHT22;23184;51.902;12.836;2022-10-26T15:36:55;15.90;99.90
37300;DHT22;23184;51.902;12.836;2022-10-26T15:39:20;15.90;99.90
37300;DHT22;23184;51.902;12.836;2022-10-26T15:41:47;15.80;99.90
37300;DHT22;23184;51.902;12.836;2022-10-26T15:44:16;15.70;99.90
37300;DHT22;23184;51.902;12.836;2022-10-26T15:46:43;15.70;99.90
37300;DHT22;23184;51.902;12.836;2022-10-26T15:49:15;15.60;99.90
37300;DHT22;23184;51.902;12.836;2022-10-26T15:51:43;15.50;99.90
37300;DHT22;23184;51.902;12.836;2022-10-26T15:54:09;15.50;99.90
37300;DHT22;23184;51.902;12.836;2022-10-26T15:56:35;15.50;99.90
37300;DHT22;23184;51.902;12.836;2022-10-26T15:59:00;15.50;99.90
37300;DHT22;23184;51.902;12.836;2022-10-26T16:01:27;15.50;99.90
37300;DHT22;23184;51.902;12.836;2022-10-26T16:03:54;15.40;99.90
37300;DHT22;23184;51.902;12.836;2022-10-26T16:06:28;15.40;99.90
37300;DHT22;23184;51.902;12.836;2022-10-26T16:08:56;15.30;99.90
37300;DHT22;23184;51.902;12.836;2022-10-26T16:11:22;15.30;99.90
37300;DHT22;23184;51.902;12.836;2022-10-26T16:13:48;15.30;99.90
37300;DHT22;23184;51.902;12.836;2022-10-26T16:16:15;15.30;99.90
37300;DHT22;23184;51.902;12.836;2022-10-26T16:18:41;15.30;99.90
37300;DHT22;23184;51.902;12.836;2022-10-26T16:21:15;15.20;99.90
37300;DHT22;23184;51.902;12.836;2022-10-26T16:23:41;15.20;99.90
37300;DHT22;23184;51.902;12.836;2022-10-26T16:26:07;15.20;99.90
37300;DHT22;23184;51.902;12.836;2022-10-26T16:28:35;15.10;99.90
37300;DHT22;23184;51.902;12.836;2022-10-26T16:31:02;15.10;99.90
37300;DHT22;23184;51.902;12.836;2022-10-26T16:33:28;15.10;99.90
37300;DHT22;23184;51.902;12.836;2022-10-26T16:35:55;15.10;99.90
37300;DHT22;23184;51.902;12.836;2022-10-26T16:38:21;15.10;99.90
37300;DHT22;23184;51.902;12.836;2022-10-26T16:40:47;15.00;99.90
37300;DHT22;23184;51.902;12.836;2022-10-26T16:43:12;15.00;99.90
37300;DHT22;23184;51.902;12.836;2022-10-26T16:45:39;15.10;99.90
37300;DHT22;23184;51.902;12.836;2022-10-26T16:48:06;15.00;99.90
37300;DHT22;23184;51.902;12.836;2022-10-26T16:50:38;15.00;99.90
37300;DHT22;23184;51.902;12.836;2022-10-26T16:53:05;15.10;99.90
37300;DHT22;23184;51.902;12.836;2022-10-26T16:55:31;15.10;99.90
37300;DHT22;23184;51.902;12.836;2022-10-26T16:57:56;15.00;99.90
37300;DHT22;23184;51.902;12.836;2022-10-26T17:00:22;15.00;99.90
37300;DHT22;23184;51.902;12.836;2022-10-26T17:02:47;15.10;99.90
37300;DHT22;23184;51.902;12.836;2022-10-26T17:05:13;15.10;99.90
37300;DHT22;23184;51.902;12.836;2022-10-26T17:07:39;15.20;99.90
37300;DHT22;23184;51.902;12.836;2022-10-26T17:10:05;15.20;99.90
37300;DHT22;23184;51.902;12.836;2022-10-26T17:12:31;15.20;99.90
37300;DHT22;23184;51.902;12.836;2022-10-26T17:14:56;15.10;99.90
37300;DHT22;23184;51.902;12.836;2022-10-26T17:17:24;15.10;99.90
37300;DHT22;23184;51.902;12.836;2022-10-26T17:19:50;15.00;99.90
37300;DHT22;23184;51.902;12.836;2022-10-26T17:22:15;15.00;99.90
37300;DHT22;23184;51.902;12.836;2022-10-26T17:24:41;14.90;99.90
37300;DHT22;23184;51.902;12.836;2022-10-26T17:27:06;14.90;99.90
37300;DHT22;23184;51.902;12.836;2022-10-26T17:29:32;14.80;99.90
37300;DHT22;23184;51.902;12.836;2022-10-26T17:31:57;14.80;99.90
37300;DHT22;23184;51.902;12.836;2022-10-26T17:34:23;14.70;99.90
37300;DHT22;23184;51.902;12.836;2022-10-26T17:36:49;14.60;99.90
37300;DHT22;23184;51.902;12.836;2022-10-26T17:39:14;14.60;99.90
37300;DHT22;23184;51.902;12.836;2022-10-26T17:41:40;14.60;99.90
37300;DHT22;23184;51.902;12.836;2022-10-26T17:44:06;14.50;99.90